Time;durP1;ratioP1;P1;durP2;ratioP2;P2;SDS_P1;SDS_P2;PMS_P1;PMS_P2;Temp;Humidity;BMP_temperature;BMP_pressure;BME280_temperature;BME280_humidity;BME280_pressure;Samples;Min_cycle;Max_cycle;Signal;HPM_P1;HPM_P2
2023/03/20 00:01:12;;;;;;;23.93;19.57;;;;;;;5.36;100.00;99376.38;6292938;22;20171;-89
2023/03/20 00:03:40;;;;;;;23.03;19.50;;;;;;;5.31;100.00;99379.63;6316929;22;20167;-90
2023/03/20 00:06:20;;;;;;;21.63;19.30;;;;;;;5.30;100.00;99378.78;6266282;22;20163;-88
2023/03/20 00:08:50;;;;;;;21.93;19.63;;;;;;;5.40;100.00;99381.13;6291432;22;20154;-87
2023/03/20 00:11:29;;;;;;;22.57;20.17;;;;;;;5.35;100.00;99377.38;6266410;22;20160;-88
2023/03/20 00:13:59;;;;;;;21.73;19.40;;;;;;;5.36;100.00;99385.19;6283933;22;20228;-88
2023/03/20 00:16:39;;;;;;;21.83;19.23;;;;;;;5.38;100.00;99390.28;6235007;22;20679;-89
2023/03/20 00:19:16;;;;;;;21.93;18.57;;;;;;;5.32;100.00;99384.72;6235173;22;20160;-88
2023/03/20 00:21:46;;;;;;;22.97;18.90;;;;;;;5.37;100.00;99380.66;6261439;22;20151;-87
2023/03/20 00:24:20;;;;;;;23.63;18.93;;;;;;;5.46;100.00;99382.97;6263329;22;20175;-87
2023/03/20 00:26:50;;;;;;;19.67;17.67;;;;;;;5.47;100.00;99378.50;6234893;22;20170;-89
2023/03/20 00:29:29;;;;;;;21.90;18.37;;;;;;;5.43;100.00;99378.06;6259400;22;20186;-87
2023/03/20 00:31:58;;;;;;;22.20;19.90;;;;;;;5.48;100.00;99378.31;6259740;22;20166;-88
2023/03/20 00:34:28;;;;;;;21.30;19.10;;;;;;;5.47;100.00;99381.16;6235456;22;20190;-88
2023/03/20 00:37:00;;;;;;;21.70;19.40;;;;;;;5.51;100.00;99377.91;6234525;22;20194;-88
2023/03/20 00:39:28;;;;;;;21.77;19.30;;;;;;;5.53;100.00;99378.56;6259747;22;20160;-88
2023/03/20 00:42:00;;;;;;;22.53;19.73;;;;;;;5.50;100.00;99372.81;6259511;22;20171;-86
2023/03/20 00:44:35;;;;;;;22.10;19.60;;;;;;;5.52;100.00;99368.94;6236407;22;20168;-87
2023/03/20 00:47:16;;;;;;;22.27;19.73;;;;;;;5.56;100.00;99369.38;6260766;22;20155;-88
2023/03/20 00:49:46;;;;;;;24.10;20.90;;;;;;;5.64;100.00;99382.53;6235105;22;20260;-87
2023/03/20 00:52:18;;;;;;;23.20;20.27;;;;;;;5.63;100.00;99384.34;6260806;22;20159;-88
2023/03/20 00:54:46;;;;;;;22.70;20.43;;;;;;;5.62;100.00;99376.56;6236408;22;20167;-87
2023/03/20 00:57:22;;;;;;;22.93;20.63;;;;;;;5.59;100.00;99385.75;6261614;22;20597;-88
2023/03/20 00:59:55;;;;;;;22.37;20.00;;;;;;;5.58;100.00;99378.81;6263438;22;20169;-88
2023/03/20 01:02:27;;;;;;;22.30;20.00;;;;;;;5.57;100.00;99378.97;6262406;22;20174;-88
2023/03/20 01:04:55;;;;;;;22.30;20.07;;;;;;;5.55;100.00;99371.19;6237026;22;20171;-87
2023/03/20 01:07:25;;;;;;;22.53;20.23;;;;;;;5.60;100.00;99370.66;6238626;22;20246;-88
2023/03/20 01:09:52;;;;;;;22.80;20.40;;;;;;;5.59;100.00;99366.34;6263081;22;20187;-88
2023/03/20 01:12:19;;;;;;;21.57;19.43;;;;;;;5.61;100.00;99375.75;6237503;22;20171;-88
2023/03/20 01:14:50;;;;;;;22.90;20.50;;;;;;;5.64;100.00;99370.06;6237303;22;20196;-88
2023/03/20 01:17:19;;;;;;;23.10;20.70;;;;;;;5.64;100.00;99379.88;6236892;22;20160;-87
2023/03/20 01:19:47;;;;;;;22.73;20.43;;;;;;;5.58;100.00;99370.81;6237353;22;20163;-89
2023/03/20 01:22:17;;;;;;;23.47;20.97;;;;;;;5.61;100.00;99370.44;6238435;22;20164;-88
2023/03/20 01:24:44;;;;;;;22.83;20.57;;;;;;;5.65;100.00;99366.38;6237038;22;20171;-88
2023/03/20 01:27:13;;;;;;;23.30;21.00;;;;;;;5.67;100.00;99368.84;6237524;22;20195;-89
2023/03/20 01:29:40;;;;;;;23.57;20.43;;;;;;;5.64;100.00;99374.56;6261834;22;20286;-88
2023/03/20 01:32:16;;;;;;;23.80;21.40;;;;;;;5.65;100.00;99376.16;6237046;22;20164;-87
2023/03/20 01:34:46;;;;;;;25.13;21.23;;;;;;;5.60;100.00;99366.13;6238987;22;20159;-88
2023/03/20 01:37:17;;;;;;;23.30;21.00;;;;;;;5.59;100.00;99375.13;6238164;22;20171;-89
2023/03/20 01:39:44;;;;;;;22.60;20.20;;;;;;;5.55;100.00;99373.84;6263309;22;20168;-87
2023/03/20 01:42:14;;;;;;;23.47;21.03;;;;;;;5.53;100.00;99373.25;6237172;22;20225;-88
2023/03/20 01:44:43;;;;;;;23.33;21.00;;;;;;;5.59;100.00;99385.75;6262357;22;20172;-89
2023/03/20 01:47:22;;;;;;;23.60;21.20;;;;;;;5.55;100.00;99371.19;6237495;22;20214;-86
2023/03/20 01:50:21;;;;;;;22.53;20.10;;;;;;;5.60;100.00;99379.41;6238517;22;20270;-89
2023/03/20 01:53:07;;;;;;;21.70;19.47;;;;;;;5.58;100.00;99388.59;6262519;22;20171;-87
2023/03/20 01:55:45;;;;;;;22.53;20.13;;;;;;;5.53;100.00;99383.88;6243049;22;20191;-88
2023/03/20 01:58:18;;;;;;;23.20;20.90;;;;;;;5.50;100.00;99386.09;6240300;22;20164;-87
2023/03/20 02:00:47;;;;;;;23.43;20.77;;;;;;;5.42;100.00;99381.72;6239383;22;20170;-88
2023/03/20 02:03:18;;;;;;;24.27;20.37;;;;;;;5.46;100.00;99390.94;6241487;22;20152;-89
2023/03/20 02:06:11;;;;;;;27.40;22.37;;;;;;;5.54;100.00;99393.50;6221535;22;20219;-88
2023/03/20 02:08:58;;;;;;;27.03;22.23;;;;;;;5.48;100.00;99388.13;6272780;22;20187;-88
2023/03/20 02:11:30;;;;;;;33.30;24.63;;;;;;;5.42;100.00;99402.97;6265219;22;20155;-89
2023/03/20 02:13:59;;;;;;;24.60;21.63;;;;;;;5.36;100.00;99395.81;6264609;22;20200;-89
2023/03/20 02:16:34;;;;;;;24.40;21.03;;;;;;;5.38;100.00;99390.28;6242551;22;20167;-89
2023/03/20 02:19:40;;;;;;;23.67;21.17;;;;;;;5.36;100.00;99389.66;6290769;22;20210;-87
2023/03/20 02:22:31;;;;;;;22.73;20.33;;;;;;;5.29;100.00;99379.78;6253747;22;20171;-88
2023/03/20 02:25:18;;;;;;;23.47;20.97;;;;;;;5.28;100.00;99379.97;6264113;22;20219;-88
2023/03/20 02:28:26;;;;;;;25.00;21.50;;;;;;;5.26;100.00;99385.50;6263934;22;20164;-88
2023/03/20 02:31:23;;;;;;;23.07;20.47;;;;;;;5.23;100.00;99385.03;6289970;22;20191;-85
2023/03/20 02:34:14;;;;;;;23.23;20.83;;;;;;;5.20;100.00;99385.44;6264314;22;20167;-88
2023/03/20 02:36:41;;;;;;;22.60;20.20;;;;;;;5.14;100.00;99387.00;6264863;22;20153;-87
2023/03/20 02:39:29;;;;;;;21.93;19.57;;;;;;;5.11;100.00;99383.91;6289142;22;20163;-87
2023/03/20 02:42:16;;;;;;;22.17;19.50;;;;;;;5.12;100.00;99388.22;6263322;22;20194;-88
2023/03/20 02:44:43;;;;;;;21.93;19.73;;;;;;;5.12;100.00;99386.41;6239203;22;20610;-86
2023/03/20 02:47:27;;;;;;;22.70;20.30;;;;;;;5.11;100.00;99386.56;6290005;22;20167;-88
2023/03/20 02:50:07;;;;;;;22.37;20.10;;;;;;;5.18;100.00;99387.47;6264118;22;20215;-87
2023/03/20 02:53:05;;;;;;;22.13;19.93;;;;;;;5.04;100.00;99385.72;6239465;22;20171;-88
2023/03/20 02:55:43;;;;;;;21.90;19.17;;;;;;;5.03;100.00;99387.53;6264506;22;20175;-87
2023/03/20 02:58:17;;;;;;;21.93;19.57;;;;;;;5.02;100.00;99390.38;6238766;22;20495;-87
2023/03/20 03:01:01;;;;;;;26.93;22.63;;;;;;;5.04;100.00;99393.66;6264249;22;20187;-88
2023/03/20 03:03:47;;;;;;;25.40;21.13;;;;;;;4.98;100.00;99391.75;6240435;22;20586;-88
2023/03/20 03:06:31;;;;;;;22.70;20.27;;;;;;;4.91;100.00;99404.97;6238847;22;20164;-87
2023/03/20 03:09:19;;;;;;;48.83;33.57;;;;;;;4.90;100.00;99400.66;6239891;22;20242;-87
2023/03/20 03:11:58;;;;;;;41.00;28.83;;;;;;;4.87;100.00;99401.88;6263333;22;20190;-87
2023/03/20 03:14:42;;;;;;;27.63;23.33;;;;;;;4.81;100.00;99407.09;6251385;22;20195;-88
2023/03/20 03:17:14;;;;;;;26.23;22.40;;;;;;;4.73;100.00;99407.22;6270243;22;20159;-88
2023/03/20 03:19:55;;;;;;;23.47;19.40;;;;;;;4.69;100.00;99412.09;6295076;22;20245;-88
2023/03/20 03:22:23;;;;;;;22.23;19.43;;;;;;;4.66;100.00;99406.34;6319032;22;20483;-89
2023/03/20 03:24:52;;;;;;;21.87;19.57;;;;;;;4.53;100.00;99404.34;6245278;22;20192;-88
2023/03/20 03:27:36;;;;;;;21.77;19.47;;;;;;;4.58;100.00;99401.13;6268822;22;20167;-88
2023/03/20 03:30:15;;;;;;;22.43;20.03;;;;;;;4.54;100.00;99405.16;6267604;22;20217;-87
2023/03/20 03:33:02;;;;;;;21.30;19.10;;;;;;;4.47;100.00;99404.28;6268618;22;20172;-87
2023/03/20 03:35:34;;;;;;;21.23;19.03;;;;;;;4.44;100.00;99402.78;6322170;22;20156;-90
2023/03/20 03:38:43;;;;;;;22.07;19.53;;;;;;;4.46;100.00;99403.44;6294836;22;20171;-88
2023/03/20 03:41:24;;;;;;;21.67;19.37;;;;;;;4.35;100.00;99399.44;6252711;22;20171;-90
2023/03/20 03:44:24;;;;;;;22.97;20.47;;;;;;;4.32;100.00;99413.06;6269645;22;20186;-87
2023/03/20 03:47:08;;;;;;;21.63;19.43;;;;;;;4.32;100.00;99410.41;6319687;22;20260;-86
2023/03/20 03:49:41;;;;;;;22.03;19.83;;;;;;;4.22;100.00;99417.00;6269728;22;20167;-88
2023/03/20 03:52:12;;;;;;;27.60;23.47;;;;;;;4.17;100.00;99409.59;6268513;22;20197;-88
2023/03/20 03:55:06;;;;;;;24.13;21.37;;;;;;;4.11;100.00;99406.84;6296108;22;20241;-88
2023/03/20 03:57:40;;;;;;;22.73;20.43;;;;;;;4.06;100.00;99402.09;6305717;22;20156;-90
2023/03/20 04:00:13;;;;;;;22.43;20.13;;;;;;;4.06;100.00;99401.31;6295301;22;20192;-89
2023/03/20 04:02:42;;;;;;;22.97;20.57;;;;;;;4.06;100.00;99398.66;6294704;22;20664;-87
2023/03/20 04:05:12;;;;;;;25.37;22.57;;;;;;;3.99;100.00;99399.38;6268848;22;20175;-89
2023/03/20 04:07:44;;;;;;;24.43;21.83;;;;;;;4.03;100.00;99407.78;6268700;22;20171;-89
2023/03/20 04:10:13;;;;;;;26.13;21.67;;;;;;;3.99;100.00;99406.50;6268159;22;20190;-89
2023/03/20 04:12:42;;;;;;;24.57;21.97;;;;;;;3.98;100.00;99402.19;6293241;22;20171;-86
2023/03/20 04:15:11;;;;;;;24.80;21.50;;;;;;;3.93;100.00;99404.56;6267895;22;20203;-89
2023/03/20 04:17:38;;;;;;;24.50;21.90;;;;;;;3.92;100.00;99409.03;6267734;22;20167;-88
2023/03/20 04:20:11;;;;;;;24.37;21.77;;;;;;;3.88;100.00;99402.47;6270199;22;20190;-88
2023/03/20 04:22:38;;;;;;;24.13;21.53;;;;;;;3.91;100.00;99403.94;6268366;22;20174;-89
2023/03/20 04:25:17;;;;;;;25.20;22.13;;;;;;;3.88;100.00;99393.69;6268859;22;20171;-87
2023/03/20 04:27:46;;;;;;;24.77;22.27;;;;;;;3.88;100.00;99399.00;6293129;22;20204;-88
2023/03/20 04:30:38;;;;;;;23.77;20.97;;;;;;;3.86;100.00;99396.53;6299194;22;20187;-88
2023/03/20 04:33:24;;;;;;;25.63;22.00;;;;;;;3.81;100.00;99395.44;6276118;22;20170;-87
2023/03/20 04:36:00;;;;;;;24.43;21.27;;;;;;;3.83;100.00;99407.50;6296339;22;20158;-88
2023/03/20 04:38:28;;;;;;;90.27;50.60;;;;;;;3.77;100.00;99402.94;6267442;22;20167;-87
2023/03/20 04:40:59;;;;;;;72.63;41.63;;;;;;;3.83;100.00;99406.66;6293732;22;20166;-87
2023/03/20 04:43:29;;;;;;;123.37;67.43;;;;;;;3.77;100.00;99413.53;6293103;22;20167;-88
2023/03/20 04:45:59;;;;;;;92.93;53.63;;;;;;;3.73;100.00;99414.06;6268369;22;20170;-88
2023/03/20 04:48:31;;;;;;;56.10;37.83;;;;;;;3.66;100.00;99418.44;6296461;22;20151;-87
2023/03/20 04:50:59;;;;;;;28.23;23.27;;;;;;;3.62;100.00;99412.69;6267826;22;20190;-88
2023/03/20 04:53:38;;;;;;;24.60;21.80;;;;;;;3.59;100.00;99425.47;6273612;22;20159;-89
2023/03/20 04:56:06;;;;;;;39.27;35.00;;;;;;;3.64;100.00;99420.47;6293341;22;20221;-87
2023/03/20 04:58:35;;;;;;;29.33;26.27;;;;;;;3.57;100.00;99423.00;6292606;22;20186;-89
2023/03/20 05:01:03;;;;;;;25.33;22.73;;;;;;;3.64;100.00;99423.09;6293347;22;20162;-89
2023/03/20 05:03:30;;;;;;;27.37;22.77;;;;;;;3.61;100.00;99424.28;6266634;22;20170;-89
2023/03/20 05:05:58;;;;;;;26.23;23.27;;;;;;;3.69;100.00;99432.13;6291643;22;20242;-87
2023/03/20 05:08:27;;;;;;;25.90;22.70;;;;;;;3.72;100.00;99431.81;6266041;22;20167;-88
2023/03/20 05:10:59;;;;;;;50.93;35.27;;;;;;;3.66;100.00;99440.47;6267603;22;20190;-88
2023/03/20 05:14:05;;;;;;;32.00;28.50;;;;;;;3.71;100.00;99440.75;6219058;23;20209;-88
2023/03/20 05:16:49;;;;;;;25.83;22.40;;;;;;;3.73;100.00;99444.06;6172731;23;20177;-88
2023/03/20 05:19:19;;;;;;;37.63;33.70;;;;;;;3.80;100.00;99447.59;6231706;22;20203;-87
2023/03/20 05:22:21;;;;;;;40.87;35.80;;;;;;;3.82;100.00;99453.56;6271280;22;20170;-89
2023/03/20 05:24:52;;;;;;;31.83;26.00;;;;;;;3.87;100.00;99453.81;6261646;22;20188;-89
2023/03/20 05:27:22;;;;;;;25.67;22.93;;;;;;;3.93;100.00;99460.22;6297629;22;20230;-87
2023/03/20 05:30:07;;;;;;;25.73;21.23;;;;;;;3.99;100.00;99462.16;6263801;22;20167;-89
2023/03/20 05:32:52;;;;;;;25.23;21.77;;;;;;;3.98;100.00;99471.94;6271134;22;20162;-88
2023/03/20 05:35:25;;;;;;;23.90;21.30;;;;;;;4.00;100.00;99474.44;6299963;22;20602;-88
2023/03/20 05:38:00;;;;;;;25.07;22.37;;;;;;;4.04;100.00;99477.53;6264959;22;20174;-88
2023/03/20 05:40:34;;;;;;;33.63;30.23;;;;;;;4.05;100.00;99479.19;6241121;22;20159;-87
2023/03/20 05:43:18;;;;;;;25.83;23.03;;;;;;;4.05;100.00;99482.66;6243962;22;20233;-87
2023/03/20 05:46:25;;;;;;;28.60;24.77;;;;;;;4.11;100.00;99489.03;6290370;22;20198;-86
2023/03/20 05:49:19;;;;;;;27.10;24.07;;;;;;;4.23;100.00;99498.22;6264716;22;20220;-87
2023/03/20 05:52:04;;;;;;;25.23;22.57;;;;;;;4.27;100.00;99495.00;6292721;22;20187;-88
2023/03/20 05:55:07;;;;;;;23.53;21.13;;;;;;;4.35;100.00;99500.22;6299870;22;20171;-89
2023/03/20 05:57:52;;;;;;;25.77;22.97;;;;;;;4.42;100.00;99498.50;6292845;22;20612;-88
2023/03/20 06:00:58;;;;;;;24.50;21.97;;;;;;;4.52;100.00;99503.53;6162816;23;20170;-88
2023/03/20 06:03:57;;;;;;;24.13;21.73;;;;;;;4.64;100.00;99499.38;6315778;22;20167;-87
2023/03/20 06:06:46;;;;;;;24.67;22.07;;;;;;;4.74;100.00;99510.56;6293917;22;20155;-87
2023/03/20 06:09:14;;;;;;;23.90;21.40;;;;;;;4.87;100.00;99508.06;6264428;22;20170;-86
2023/03/20 06:11:41;;;;;;;25.83;23.23;;;;;;;4.99;100.00;99505.75;6238926;22;20233;-89
2023/03/20 06:14:10;;;;;;;28.50;25.07;;;;;;;5.18;100.00;99513.09;6264373;22;20206;-88
2023/03/20 06:16:41;;;;;;;27.50;23.33;;;;;;;5.24;100.00;99507.03;6264408;22;20172;-88
2023/03/20 06:19:17;;;;;;;25.17;22.57;;;;;;;5.38;100.00;99515.97;6292204;22;20225;-87
2023/03/20 06:21:45;;;;;;;24.63;21.63;;;;;;;5.56;100.00;99521.66;6238893;22;20175;-87
2023/03/20 06:24:16;;;;;;;22.87;20.53;;;;;;;5.65;100.00;99520.53;6240738;22;20594;-87
2023/03/20 06:26:43;;;;;;;23.03;20.53;;;;;;;5.84;100.00;99520.88;6289759;22;20167;-88
2023/03/20 06:29:11;;;;;;;25.87;21.27;;;;;;;5.93;100.00;99527.75;6239122;22;20168;-87
2023/03/20 06:31:38;;;;;;;27.23;24.53;;;;;;;6.03;100.00;99526.41;6239005;22;20180;-88
2023/03/20 06:34:11;;;;;;;23.47;21.00;;;;;;;6.17;100.00;99527.31;6265379;22;20231;-87
2023/03/20 06:36:43;;;;;;;22.50;20.13;;;;;;;6.40;100.00;99532.38;6241036;22;20230;-88
2023/03/20 06:39:20;;;;;;;22.63;20.20;;;;;;;6.57;100.00;99533.75;6242971;22;20465;-86
2023/03/20 06:41:47;;;;;;;21.90;19.60;;;;;;;6.81;100.00;99533.25;6239181;22;20266;-89
2023/03/20 06:44:14;;;;;;;22.27;19.27;;;;;;;6.95;100.00;99537.59;6238138;22;20195;-87
2023/03/20 06:47:09;;;;;;;22.53;20.13;;;;;;;7.23;100.00;99540.16;6270329;22;20167;-88
2023/03/20 06:49:38;;;;;;;24.03;20.73;;;;;;;7.41;100.00;99534.28;6263575;22;20163;-89
2023/03/20 06:52:15;;;;;;;24.67;21.43;;;;;;;7.65;100.00;99538.25;6239872;22;20188;-89
2023/03/20 06:54:44;;;;;;;25.00;22.13;;;;;;;7.89;100.00;99538.47;6240392;22;20160;-88
2023/03/20 06:57:11;;;;;;;26.33;21.23;;;;;;;8.14;100.00;99530.66;6236743;22;20247;-88
2023/03/20 06:59:41;;;;;;;23.57;20.83;;;;;;;8.39;100.00;99529.03;6237432;22;20156;-88
2023/03/20 07:02:10;;;;;;;28.90;26.03;;;;;;;8.62;100.00;99536.59;6234052;22;20234;-88
2023/03/20 07:04:38;;;;;;;34.20;30.50;;;;;;;8.82;100.00;99542.69;6234591;22;20191;-87
2023/03/20 07:07:07;;;;;;;29.37;26.47;;;;;;;9.04;100.00;99548.59;6259600;22;20177;-87
2023/03/20 07:09:35;;;;;;;27.43;24.63;;;;;;;9.32;100.00;99545.59;6258677;22;20179;-88
2023/03/20 07:12:03;;;;;;;24.33;21.77;;;;;;;9.61;100.00;99545.00;6258528;22;20641;-88
2023/03/20 07:14:34;;;;;;;24.00;21.50;;;;;;;9.92;100.00;99546.03;6237550;22;20202;-90
2023/03/20 07:17:05;;;;;;;23.17;20.73;;;;;;;10.25;100.00;99533.25;6254857;22;20164;-87
2023/03/20 07:19:36;;;;;;;22.87;19.80;;;;;;;10.63;100.00;99548.34;6278840;22;20179;-88
2023/03/20 07:22:16;;;;;;;21.90;19.83;;;;;;;10.94;100.00;99543.66;6252150;22;20159;-87
2023/03/20 07:24:46;;;;;;;21.47;19.50;;;;;;;11.17;100.00;99542.13;6277010;22;20178;-88
2023/03/20 07:27:14;;;;;;;20.70;18.67;;;;;;;11.32;100.00;99545.25;6250420;22;20191;-87
2023/03/20 07:29:44;;;;;;;20.47;18.47;;;;;;;11.31;100.00;99539.06;6276014;22;20160;-87
2023/03/20 07:32:16;;;;;;;21.23;19.13;;;;;;;11.38;100.00;99539.00;6276895;22;20255;-86
2023/03/20 07:34:49;;;;;;;21.20;19.17;;;;;;;11.45;100.00;99537.84;6247583;22;20167;-86
2023/03/20 07:37:20;;;;;;;21.13;18.83;;;;;;;11.57;100.00;99545.13;6274834;22;20152;-86
2023/03/20 07:40:00;;;;;;;22.07;19.73;;;;;;;11.63;100.00;99544.19;6280209;22;20160;-85
2023/03/20 07:43:03;;;;;;;19.77;17.97;;;;;;;11.80;100.00;99543.34;6305584;22;20171;-85
2023/03/20 07:45:58;;;;;;;21.53;19.37;;;;;;;12.11;100.00;99552.19;6310378;22;20171;-86
2023/03/20 07:48:43;;;;;;;21.83;19.67;;;;;;;12.32;100.00;99554.28;6277632;22;20171;-86
2023/03/20 07:51:23;;;;;;;20.60;18.77;;;;;;;12.56;100.00;99555.94;6281234;22;20188;-85
2023/03/20 08:09:41;;;;;;;15.43;13.83;;;;;;;13.74;100.00;99538.47;6298094;22;20206;-82
2023/03/20 08:12:29;;;;;;;15.67;14.00;;;;;;;14.00;100.00;99535.16;6297542;22;20244;-82
2023/03/20 08:15:17;;;;;;;16.40;14.70;;;;;;;14.19;100.00;99533.84;6274015;22;20176;-82
2023/03/20 08:18:10;;;;;;;16.87;15.17;;;;;;;14.42;99.88;99535.56;6302689;22;20205;-82
2023/03/20 08:21:13;;;;;;;15.73;14.30;;;;;;;14.54;99.41;99526.34;6284636;22;20174;-82
2023/03/20 08:23:45;;;;;;;15.17;13.70;;;;;;;14.73;97.50;99532.28;6273937;22;20151;-82
2023/03/20 08:26:53;;;;;;;14.47;12.97;;;;;;;15.21;95.39;99526.13;6324989;22;20160;-82
2023/03/20 08:29:48;;;;;;;13.03;11.73;;;;;;;15.48;94.03;99530.75;6274104;22;20184;-80
2023/03/20 08:32:32;;;;;;;13.07;11.77;;;;;;;15.81;92.94;99527.91;6324285;22;20186;-83
2023/03/20 08:35:25;;;;;;;14.40;12.90;;;;;;;16.12;90.23;99524.38;6293527;22;20167;-81
2023/03/20 08:38:12;;;;;;;13.17;11.77;;;;;;;16.40;88.24;99536.75;6296640;22;20168;-82
2023/03/20 08:40:48;;;;;;;12.73;11.37;;;;;;;16.57;87.41;99529.28;6324503;22;20172;-81
2023/03/20 08:43:26;;;;;;;8.93;8.03;;;;;;;16.52;85.79;99526.56;6324486;22;20186;-81
2023/03/20 08:46:03;;;;;;;8.30;7.00;;;;;;;16.49;85.88;99520.84;6322674;22;20170;-81
2023/03/20 08:48:38;;;;;;;7.40;6.70;;;;;;;16.61;85.69;99535.06;6298234;22;20163;-81
2023/03/20 08:51:14;;;;;;;7.83;7.03;;;;;;;16.75;84.81;99528.06;6298561;22;20182;-81
2023/03/20 08:53:47;;;;;;;6.90;6.30;;;;;;;16.68;83.98;99524.81;6324917;22;20140;-81
2023/03/20 08:56:41;;;;;;;7.40;6.70;;;;;;;16.84;83.50;99523.00;6322915;22;20215;-81
2023/03/20 08:59:09;;;;;;;7.70;6.13;;;;;;;16.70;83.70;99528.84;6324786;22;20207;-82
2023/03/20 09:01:37;;;;;;;6.37;5.77;;;;;;;16.91;82.95;99527.09;6298945;22;20227;-81
2023/03/20 09:04:19;;;;;;;5.20;4.70;;;;;;;16.99;83.46;99532.00;6272347;22;20164;-81
2023/03/20 09:06:49;;;;;;;5.77;5.17;;;;;;;16.99;82.39;99537.41;6323372;22;20175;-81
2023/03/20 09:09:20;;;;;;;6.13;5.47;;;;;;;16.95;82.05;99524.66;6282112;22;20199;-81
2023/03/20 09:11:48;;;;;;;6.37;5.77;;;;;;;17.17;80.72;99533.41;6329867;22;20190;-81
2023/03/20 09:14:15;;;;;;;6.47;5.47;;;;;;;17.02;80.38;99534.19;6329660;22;20209;-81
2023/03/20 09:16:42;;;;;;;5.10;4.60;;;;;;;17.50;79.86;99538.41;6307738;22;20565;-81
2023/03/20 09:19:12;;;;;;;5.17;4.27;;;;;;;17.75;79.26;99532.28;6330653;22;20227;-81
2023/03/20 09:21:49;;;;;;;5.00;4.60;;;;;;;17.97;77.60;99537.44;6329998;22;20158;-81
2023/03/20 09:24:17;;;;;;;4.90;4.40;;;;;;;18.32;76.31;99533.94;6322195;22;20186;-80
2023/03/20 09:26:44;;;;;;;5.23;4.73;;;;;;;18.70;74.30;99527.13;6299997;22;20159;-81
2023/03/20 09:29:24;;;;;;;4.77;4.33;;;;;;;18.76;73.41;99528.72;6304035;22;20502;-80
2023/03/20 09:32:04;;;;;;;6.53;4.80;;;;;;;18.34;74.00;99532.56;6329108;22;20198;-82
2023/03/20 09:34:40;;;;;;;5.70;4.87;;;;;;;18.38;73.92;99530.13;6330080;22;20173;-81
2023/03/20 09:37:08;;;;;;;5.47;4.97;;;;;;;18.60;73.61;99529.84;6327756;22;20238;-81
2023/03/20 09:39:40;;;;;;;5.23;4.37;;;;;;;18.48;73.96;99530.09;6304217;22;20162;-80
2023/03/20 09:42:30;;;;;;;4.67;4.17;;;;;;;17.85;73.21;99526.06;6328284;22;20190;-82
2023/03/20 09:45:29;;;;;;;3.50;3.20;;;;;;;18.16;72.13;99526.88;6329173;22;20152;-81
2023/03/20 09:48:02;;;;;;;3.20;2.27;;;;;;;18.07;69.87;99525.78;6328550;22;20148;-81
2023/03/20 09:55:24;;;;;;;2.40;2.20;;;;;;;18.15;68.11;99522.56;6356952;22;20150;-81
2023/03/20 09:58:16;;;;;;;2.57;2.13;;;;;;;17.63;68.18;99522.78;6355765;22;20155;-81
2023/03/20 10:01:40;;;;;;;2.43;2.00;;;;;;;18.33;66.72;99519.28;6345808;22;20171;-81
2023/03/20 10:04:19;;;;;;;2.10;1.90;;;;;;;18.30;66.56;99508.97;6314637;22;20151;-79
2023/03/20 10:11:17;;;;;;;2.87;2.33;;;;;;;18.32;66.24;99515.75;6332777;22;20253;-82
2023/03/20 10:14:35;;;;;;;3.43;2.30;;;;;;;18.54;66.38;99510.06;6307102;22;20190;-83
2023/03/20 10:17:44;;;;;;;2.97;2.30;;;;;;;18.92;65.25;99508.59;6332427;22;20648;-82
2023/03/20 10:20:35;;;;;;;2.53;2.20;;;;;;;18.90;64.54;99499.91;6327620;22;20172;-81
2023/03/20 10:23:08;;;;;;;3.20;2.10;;;;;;;18.78;64.57;99515.69;6304990;22;20147;-80
2023/03/20 10:26:19;;;;;;;2.63;2.33;;;;;;;18.63;64.62;99502.97;6301479;22;20168;-82
2023/03/20 10:33:03;;;;;;;2.67;2.20;;;;;;;18.81;65.45;99491.53;6269732;22;20202;-79
2023/03/20 10:35:39;;;;;;;2.23;2.03;;;;;;;18.76;64.91;99493.44;6287985;22;20201;-79
2023/03/20 10:38:49;;;;;;;2.50;1.50;;;;;;;18.73;63.18;99494.81;6259496;22;20150;-78
2023/03/20 10:41:18;;;;;;;2.23;1.60;;;;;;;18.68;63.10;99483.97;6276982;22;20604;-78
2023/03/20 10:43:48;;;;;;;1.77;1.50;;;;;;;18.82;62.52;99492.34;6282313;22;20180;-77
2023/03/20 10:46:39;;;;;;;2.30;1.17;;;;;;;18.80;61.36;99486.41;6308240;22;20156;-77
2023/03/20 10:49:14;;;;;;;2.67;1.60;;;;;;;19.17;62.21;99475.94;6282940;22;20152;-79
2023/03/20 10:51:47;;;;;;;2.10;1.80;;;;;;;19.47;61.42;99483.09;6316923;22;20171;-80
2023/03/20 10:54:27;;;;;;;2.23;1.77;;;;;;;19.13;60.59;99471.34;6290452;22;20152;-80
2023/03/20 10:56:59;;;;;;;2.63;1.50;;;;;;;19.17;60.81;99475.94;6291847;22;20152;-80
2023/03/20 10:59:29;;;;;;;3.03;2.00;;;;;;;18.43;62.72;99468.53;6264642;22;20160;-80
2023/03/20 11:01:57;;;;;;;3.37;2.00;;;;;;;18.28;63.27;99465.88;6290777;22;20156;-81
2023/03/20 11:04:24;;;;;;;2.33;1.43;;;;;;;18.53;60.72;99461.47;6290887;22;20479;-80
2023/03/20 11:07:21;;;;;;;1.70;1.60;;;;;;;18.49;61.98;99463.91;6293632;22;20152;-80
2023/03/20 11:10:11;;;;;;;2.30;1.80;;;;;;;18.78;61.15;99456.00;6292826;22;20156;-81
2023/03/20 11:12:48;;;;;;;2.83;1.60;;;;;;;18.80;60.64;99457.31;6347171;22;20195;-82
2023/03/20 11:15:33;;;;;;;3.30;1.83;;;;;;;18.90;60.33;99451.06;6298621;22;20155;-82
2023/03/20 11:18:15;;;;;;;3.00;1.70;;;;;;;19.33;59.74;99455.72;6326938;22;20170;-81
2023/03/20 11:20:50;;;;;;;2.20;1.90;;;;;;;19.46;59.96;99448.88;6350392;22;20160;-82
2023/03/20 11:23:23;;;;;;;3.47;2.20;;;;;;;19.47;60.11;99450.50;6298452;22;20152;-82
2023/03/20 11:26:01;;;;;;;2.47;2.20;;;;;;;19.79;60.09;99453.53;6321649;22;20571;-80
2023/03/20 11:28:34;;;;;;;3.37;1.90;;;;;;;20.03;59.14;99452.78;6339012;22;20161;-80
2023/03/20 11:31:15;;;;;;;3.30;2.17;;;;;;;20.15;59.16;99447.78;6284918;22;20168;-81
2023/03/20 11:33:44;;;;;;;2.33;1.60;;;;;;;20.49;57.48;99440.38;6338513;22;20588;-79
2023/03/20 11:36:21;;;;;;;2.83;2.03;;;;;;;20.41;56.96;99440.22;6310726;22;20599;-79
2023/03/20 11:38:49;;;;;;;2.57;1.97;;;;;;;19.57;56.71;99436.03;6337472;22;20664;-79
2023/03/20 11:41:26;;;;;;;2.93;2.07;;;;;;;20.20;57.48;99432.22;6307055;22;20159;-81
2023/03/20 11:43:54;;;;;;;2.73;2.00;;;;;;;19.53;56.84;99424.13;6308934;22;20151;-80
2023/03/20 11:46:22;;;;;;;2.20;2.00;;;;;;;19.72;57.47;99427.78;6340441;22;20155;-81
2023/03/20 11:49:23;;;;;;;2.20;2.00;;;;;;;19.38;57.77;99429.63;6312028;22;20166;-81
2023/03/20 11:51:51;;;;;;;2.40;2.00;;;;;;;19.15;57.49;99418.34;6234461;22;20280;-80
2023/03/20 11:54:20;;;;;;;2.53;2.10;;;;;;;18.96;58.19;99424.69;6314010;22;20217;-81
2023/03/20 11:56:58;;;;;;;2.10;1.90;;;;;;;18.95;58.32;99417.63;6341403;22;20159;-79
2023/03/20 11:59:30;;;;;;;2.50;2.30;;;;;;;18.72;59.06;99419.09;6314915;22;20147;-80
2023/03/20 12:01:57;;;;;;;2.30;2.10;;;;;;;18.66;59.31;99412.91;6341068;22;20147;-80
2023/03/20 12:04:46;;;;;;;2.23;2.10;;;;;;;18.61;59.54;99415.63;6289186;22;20159;-80
2023/03/20 12:07:32;;;;;;;2.10;1.90;;;;;;;18.42;59.44;99411.88;6316929;22;20179;-80
2023/03/20 12:10:03;;;;;;;2.23;2.03;;;;;;;18.08;58.97;99408.97;6303448;22;20201;-80
2023/03/20 12:12:55;;;;;;;1.97;1.60;;;;;;;18.30;59.68;99409.44;6314077;22;20191;-81
2023/03/20 12:15:35;;;;;;;4.33;1.90;;;;;;;18.19;59.92;99407.88;6341268;22;20469;-79
2023/03/20 12:18:15;;;;;;;2.87;2.10;;;;;;;18.24;60.23;99398.91;6287950;22;20485;-81
2023/03/20 12:21:07;;;;;;;2.60;2.33;;;;;;;18.48;60.35;99405.31;6314060;22;20169;-79
2023/03/20 12:23:37;;;;;;;3.07;2.23;;;;;;;18.56;60.06;99396.66;6341121;22;20222;-80
2023/03/20 12:26:13;;;;;;;2.63;1.87;;;;;;;18.80;60.07;99397.63;6339991;22;20529;-79
2023/03/20 12:28:46;;;;;;;4.03;2.27;;;;;;;19.08;59.63;99392.63;6311739;22;20234;-80
2023/03/20 12:31:39;;;;;;;2.83;2.40;;;;;;;19.25;58.60;99383.00;6312368;22;20148;-79
2023/03/20 12:34:10;;;;;;;2.63;2.10;;;;;;;19.54;58.13;99384.97;6312209;22;20147;-80
2023/03/20 12:36:41;;;;;;;3.60;2.47;;;;;;;20.08;57.13;99384.75;6312255;22;20155;-80
2023/03/20 12:39:35;;;;;;;2.27;1.97;;;;;;;20.04;57.06;99381.81;6338603;22;20151;-79